Terminal Aerodrome Forecast
Issued by NWS Shreveport, LA

Home | Current Version | Previous Version | Text Only | Print | Product List | Glossary On
Versions: 1 2 3 4 5 6 7 8 9 10 11 12 13 14
831
FTUS44 KSHV 140548
TAFGGG
TAF
KGGG 140548Z 1406/1506 13009KT P6SM OVC030
     FM140900 15008KT P6SM OVC025
     FM141200 16008KT P6SM OVC015
     FM141800 17012G18KT P6SM OVC020
     FM150000 16008KT 6SM BR VCSH OVC025=

USA.gov is the U.S. government's official web portal to all federal, state and local government web resources and services.